Time;durP1;ratioP1;P1;durP2;ratioP2;P2;SDS_P1;SDS_P2;PMS_P1;PMS_P2;Temp;Humidity;BMP_temperature;BMP_pressure;BME280_temperature;BME280_humidity;BME280_pressure;Samples;Min_cycle;Max_cycle;Signal;HPM_P1;HPM_P2
2022/05/04 00:00:21;;;;;;;6.43;3.83;;;11.60;99.90;;;;;;5103763;28;20051;-62
2022/05/04 00:02:48;;;;;;;5.57;3.70;;;11.60;99.90;;;;;;5112801;28;20052;-62
2022/05/04 00:05:15;;;;;;;4.68;3.60;;;11.60;99.90;;;;;;5112423;28;20067;-61
2022/05/04 00:07:42;;;;;;;11.48;4.03;;;11.60;99.90;;;;;;5107209;28;20036;-62
2022/05/04 00:10:09;;;;;;;5.45;4.00;;;11.50;99.90;;;;;;5109869;28;20381;-62
2022/05/04 00:12:36;;;;;;;5.63;3.65;;;11.60;99.90;;;;;;5113079;28;20050;-62
2022/05/04 00:15:03;;;;;;;6.35;3.75;;;11.50;99.90;;;;;;5111935;28;20119;-62
2022/05/04 00:17:30;;;;;;;;;;;11.50;99.90;;;;;;5104951;28;20097;-62
2022/05/04 00:19:57;;;;;;;4.15;2.97;;;11.50;99.90;;;;;;5112050;28;19965;-61
2022/05/04 00:22:26;;;;;;;5.00;3.40;;;11.50;99.90;;;;;;5112213;28;20047;-62
2022/05/04 00:24:53;;;;;;;6.60;3.65;;;11.50;99.90;;;;;;5105123;28;20036;-62
2022/05/04 00:27:20;;;;;;;5.22;3.22;;;11.50;99.90;;;;;;5111643;28;20088;-62
2022/05/04 00:29:46;;;;;;;6.18;3.35;;;11.50;99.90;;;;;;5093703;28;20752;-62
2022/05/04 00:32:15;;;;;;;9.38;3.47;;;11.50;99.90;;;;;;5111827;28;20108;-62
2022/05/04 00:34:42;;;;;;;5.05;3.60;;;11.50;99.90;;;;;;5103872;28;20032;-61
2022/05/04 00:37:09;;;;;;;3.38;3.05;;;11.40;99.90;;;;;;5094062;28;20176;-61
2022/05/04 00:39:36;;;;;;;5.55;3.40;;;11.40;99.90;;;;;;5111842;28;20036;-62
2022/05/04 00:42:22;;;;;;;6.35;3.33;;;11.30;99.90;;;;;;5103254;28;20465;-62
2022/05/04 00:44:49;;;;;;;5.55;3.47;;;11.30;99.90;;;;;;5112256;28;20035;-62
2022/05/04 00:47:18;;;;;;;4.10;3.35;;;11.20;99.90;;;;;;5111739;28;20039;-62
2022/05/04 00:49:46;;;;;;;7.47;3.40;;;11.20;99.90;;;;;;5111297;28;20045;-62
2022/05/04 00:52:16;;;;;;;7.97;3.80;;;11.20;99.90;;;;;;5103644;28;20039;-62
2022/05/04 00:54:45;;;;;;;8.38;3.35;;;11.20;99.90;;;;;;5112048;28;20050;-62
2022/05/04 00:57:14;;;;;;;5.50;3.63;;;11.10;99.90;;;;;;5112147;28;20051;-62
2022/05/04 00:59:41;;;;;;;5.30;3.90;;;11.10;99.90;;;;;;5110612;28;20097;-62
2022/05/04 01:02:08;;;;;;;6.78;3.33;;;11.10;99.90;;;;;;5102555;28;20457;-62
2022/05/04 01:04:35;;;;;;;7.00;4.03;;;11.10;99.90;;;;;;5107987;28;20047;-62
2022/05/04 01:07:02;;;;;;;5.93;4.10;;;11.00;99.90;;;;;;5103133;28;20152;-62
2022/05/04 01:09:30;;;;;;;6.35;4.20;;;11.00;99.90;;;;;;5100426;28;20496;-62
2022/05/04 01:11:56;;;;;;;;;;;11.00;99.90;;;;;;5099188;28;20526;-61
2022/05/04 01:14:23;;;;;;;5.75;3.75;;;11.00;99.90;;;;;;5111548;28;19920;-62
2022/05/04 01:16:50;;;;;;;5.93;4.18;;;10.90;99.90;;;;;;5103124;28;20047;-62
2022/05/04 01:19:17;;;;;;;6.97;4.68;;;10.90;99.90;;;;;;5108883;28;20382;-62
2022/05/04 01:21:47;;;;;;;8.93;4.50;;;10.90;99.90;;;;;;5105650;28;20044;-62
2022/05/04 01:24:14;;;;;;;5.75;4.40;;;10.80;99.90;;;;;;5111823;28;20093;-62
2022/05/04 01:26:41;;;;;;;8.10;4.60;;;10.80;99.90;;;;;;5110892;28;20048;-62
2022/05/04 01:29:07;;;;;;;6.55;4.03;;;10.80;99.90;;;;;;5102895;28;20451;-62
2022/05/04 01:31:34;;;;;;;9.27;4.32;;;10.80;99.90;;;;;;5111318;28;20051;-62
2022/05/04 01:34:01;;;;;;;5.90;4.50;;;10.70;99.90;;;;;;5111760;28;20051;-62
2022/05/04 01:36:28;;;;;;;12.82;4.80;;;10.70;99.90;;;;;;5110977;28;20035;-62
2022/05/04 01:38:55;;;;;;;6.15;4.57;;;10.60;99.90;;;;;;5103008;28;20035;-62
2022/05/04 01:44:07;;;;;;;7.32;4.35;;;10.60;99.90;;;;;;5090008;28;20036;-62
2022/05/04 01:49:27;;;;;;;8.65;4.63;;;10.50;99.90;;;;;;5111225;28;19935;-62
2022/05/04 01:51:54;;;;;;;9.23;5.05;;;10.40;99.90;;;;;;5111739;28;20105;-62
2022/05/04 01:54:20;;;;;;;6.88;4.60;;;10.50;99.90;;;;;;5110968;28;20036;-62
2022/05/04 01:56:47;;;;;;;8.73;5.05;;;10.50;99.90;;;;;;5103110;28;20051;-62
2022/05/04 01:59:14;;;;;;;7.68;5.03;;;10.50;99.90;;;;;;5111531;28;20043;-62
2022/05/04 02:01:41;;;;;;;8.05;4.75;;;10.50;99.90;;;;;;5111176;28;20101;-61
2022/05/04 02:04:09;;;;;;;8.13;4.30;;;10.40;99.90;;;;;;5109846;28;20028;-62
2022/05/04 02:06:37;;;;;;;6.78;4.35;;;10.40;99.90;;;;;;5104127;28;20039;-62
2022/05/04 02:09:04;;;;;;;6.43;4.28;;;10.40;99.90;;;;;;5111447;28;20085;-62
2022/05/04 02:11:32;;;;;;;6.07;3.92;;;10.40;99.90;;;;;;5110244;28;20043;-62
2022/05/04 02:14:00;;;;;;;8.10;3.65;;;10.30;99.90;;;;;;5103523;28;20036;-62
2022/05/04 02:16:26;;;;;;;5.15;3.65;;;10.30;99.90;;;;;;5115200;28;20051;-62
2022/05/04 02:18:53;;;;;;;8.05;4.00;;;10.20;99.90;;;;;;5114656;28;20044;-62
2022/05/04 02:21:20;;;;;;;6.82;4.07;;;10.20;99.90;;;;;;5105886;28;20050;-62
2022/05/04 02:23:47;;;;;;;5.55;3.70;;;10.20;99.90;;;;;;5115307;28;20039;-62
2022/05/04 02:26:14;;;;;;;5.07;2.53;;;10.20;99.90;;;;;;5115299;28;20036;-62
2022/05/04 02:28:43;;;;;;;5.25;3.60;;;10.20;99.90;;;;;;5114543;28;20089;-62
2022/05/04 02:31:10;;;;;;;7.15;3.97;;;10.20;99.90;;;;;;5105750;28;20495;-62
2022/05/04 02:33:37;;;;;;;7.13;4.07;;;10.20;99.90;;;;;;5115053;28;20457;-62
2022/05/04 02:38:49;;;;;;;7.05;3.47;;;10.10;99.90;;;;;;5106443;28;20048;-62
2022/05/04 02:41:16;;;;;;;6.85;3.45;;;10.10;99.90;;;;;;5114439;28;20526;-62
2022/05/04 02:43:43;;;;;;;7.60;4.27;;;10.10;99.90;;;;;;5114718;28;20039;-62
2022/05/04 02:46:14;;;;;;;9.23;3.97;;;10.10;99.90;;;;;;5114047;28;20297;-62
2022/05/04 02:48:41;;;;;;;5.38;3.50;;;10.00;99.90;;;;;;5106199;28;20032;-62
2022/05/04 02:51:08;;;;;;;5.43;4.15;;;10.10;99.90;;;;;;5114317;28;20050;-62
2022/05/04 02:53:35;;;;;;;6.63;3.67;;;10.00;99.90;;;;;;5114669;28;20052;-62
2022/05/04 02:56:02;;;;;;;4.95;2.88;;;10.00;99.90;;;;;;5113752;28;20039;-62
2022/05/04 02:58:29;;;;;;;5.57;3.65;;;10.00;99.90;;;;;;5106117;28;20108;-61
2022/05/04 03:04:08;;;;;;;8.48;3.83;;;9.90;99.90;;;;;;5113941;28;20092;-62
2022/05/04 03:06:36;;;;;;;6.50;4.80;;;9.90;99.90;;;;;;5084247;28;20097;-62
2022/05/04 03:09:03;;;;;;;9.00;4.45;;;9.90;99.90;;;;;;5093811;28;20040;-62
2022/05/04 03:14:18;;;;;;;10.15;6.10;;;9.80;99.90;;;;;;5105050;28;19920;-62
2022/05/04 03:16:46;;;;;;;7.57;4.88;;;9.80;99.90;;;;;;5114196;28;20036;-62
2022/05/04 03:19:13;;;;;;;7.15;4.32;;;9.70;99.90;;;;;;5113975;28;20048;-62
2022/05/04 03:21:41;;;;;;;8.00;4.03;;;9.70;99.90;;;;;;5113001;28;20553;-61
2022/05/04 03:24:08;;;;;;;8.15;3.97;;;9.70;99.90;;;;;;5105469;28;20093;-62
2022/05/04 03:26:35;;;;;;;7.22;4.07;;;9.70;99.90;;;;;;5113696;28;20450;-62
2022/05/04 03:29:03;;;;;;;6.28;4.32;;;9.70;99.90;;;;;;5113959;28;20538;-62
2022/05/04 03:31:29;;;;;;;;;;;9.70;99.90;;;;;;5124311;22;20047;-61
2022/05/04 03:33:56;;;;;;;7.00;3.65;;;9.60;99.90;;;;;;5103988;28;19920;-61
2022/05/04 03:36:23;;;;;;;6.07;3.35;;;9.60;99.90;;;;;;5093532;28;20042;-61
2022/05/04 03:38:50;;;;;;;5.75;3.72;;;9.60;99.90;;;;;;5093446;28;20044;-61
2022/05/04 03:41:17;;;;;;;4.63;3.25;;;9.60;99.90;;;;;;5084035;28;20037;-61
2022/05/04 03:43:44;;;;;;;5.28;3.22;;;9.50;99.90;;;;;;5113399;28;20051;-61
2022/05/04 03:46:22;;;;;;;6.57;2.93;;;9.50;99.90;;;;;;5113688;28;20401;-60
2022/05/04 03:48:50;;;;;;;;;;;9.50;99.90;;;;;;5113544;28;20343;-61
2022/05/04 03:51:20;;;;;;;5.13;3.22;;;9.50;99.90;;;;;;5110696;28;19924;-61
2022/05/04 03:53:47;;;;;;;9.23;3.70;;;9.50;99.90;;;;;;5093066;28;20113;-62
2022/05/04 03:56:15;;;;;;;4.40;3.35;;;9.50;99.90;;;;;;5075295;28;20539;-62
2022/05/04 03:58:42;;;;;;;5.30;3.42;;;9.50;99.90;;;;;;5113236;28;20043;-62
2022/05/04 04:01:09;;;;;;;5.63;3.20;;;9.50;99.90;;;;;;5094857;28;20086;-62
2022/05/04 04:03:37;;;;;;;9.48;3.75;;;9.50;99.90;;;;;;5092608;28;20048;-62
2022/05/04 04:06:04;;;;;;;5.25;3.50;;;9.50;99.90;;;;;;5097660;28;20039;-61
2022/05/04 04:08:31;;;;;;;13.10;4.10;;;9.40;99.90;;;;;;5108929;28;20036;-62
2022/05/04 04:10:58;;;;;;;7.20;3.97;;;9.50;99.90;;;;;;5092369;28;20446;-62
2022/05/04 04:13:25;;;;;;;7.10;4.13;;;9.50;99.90;;;;;;5092679;28;20040;-62
2022/05/04 04:15:52;;;;;;;5.57;3.90;;;9.50;99.90;;;;;;5098563;28;20039;-62
2022/05/04 04:18:19;;;;;;;6.45;3.80;;;9.40;99.90;;;;;;5110011;28;20085;-62
2022/05/04 04:23:33;;;;;;;4.97;3.65;;;9.40;99.90;;;;;;5092604;28;20492;-62
2022/05/04 04:26:00;;;;;;;8.85;3.97;;;9.40;99.90;;;;;;5082797;28;20426;-62
2022/05/04 04:28:28;;;;;;;4.90;3.50;;;9.40;99.90;;;;;;5112467;28;20043;-62
2022/05/04 04:30:55;;;;;;;;;;;9.40;99.90;;;;;;5106200;28;20052;-62
2022/05/04 04:33:26;;;;;;;5.90;3.50;;;9.40;99.90;;;;;;5082753;28;20288;-62
2022/05/04 04:35:53;;;;;;;7.10;3.70;;;9.50;99.90;;;;;;5101127;28;20409;-62
2022/05/04 04:38:20;;;;;;;;;;;9.60;99.90;;;;;;5096160;28;20044;-62
2022/05/04 04:40:46;;;;;;;6.00;3.58;;;9.60;99.90;;;;;;5101593;28;20380;-61
2022/05/04 04:43:15;;;;;;;4.57;2.35;;;9.70;99.90;;;;;;5101717;28;20044;-61
2022/05/04 04:45:46;;;;;;;4.50;3.50;;;9.70;99.90;;;;;;5102838;28;20040;-60
2022/05/04 04:48:16;;;;;;;6.22;4.10;;;9.70;99.90;;;;;;5093269;28;20043;-62
2022/05/04 04:50:44;;;;;;;6.75;3.60;;;9.70;99.90;;;;;;5091468;28;20048;-61
2022/05/04 04:53:12;;;;;;;5.45;3.53;;;9.70;99.90;;;;;;5109240;28;20043;-61
2022/05/04 04:55:43;;;;;;;6.63;4.10;;;9.80;99.90;;;;;;5091551;28;20044;-61
2022/05/04 04:58:10;;;;;;;5.70;4.00;;;9.80;99.90;;;;;;5091578;28;20044;-61
2022/05/04 05:00:37;;;;;;;9.05;3.47;;;9.80;99.90;;;;;;5082457;28;20027;-62
2022/05/04 05:03:04;;;;;;;6.50;3.70;;;9.80;99.90;;;;;;5103007;28;20445;-62
2022/05/04 05:05:32;;;;;;;6.35;3.50;;;9.90;99.90;;;;;;5111667;28;20051;-62
2022/05/04 05:07:58;;;;;;;7.20;3.88;;;9.90;99.90;;;;;;5093204;28;20051;-61
2022/05/04 05:10:25;;;;;;;5.28;3.42;;;10.00;99.90;;;;;;5107684;28;20040;-61
2022/05/04 05:12:52;;;;;;;6.32;3.80;;;10.00;99.90;;;;;;5091424;28;20051;-61
2022/05/04 05:18:05;;;;;;;4.63;3.40;;;10.10;99.90;;;;;;5099702;28;20067;-61
2022/05/04 05:20:32;;;;;;;5.63;3.30;;;10.10;99.90;;;;;;5102936;28;20399;-62
2022/05/04 05:23:00;;;;;;;6.15;4.22;;;10.10;99.90;;;;;;5111701;28;20039;-61
2022/05/04 05:25:28;;;;;;;6.60;4.15;;;10.10;99.90;;;;;;5111544;28;20072;-61
2022/05/04 05:27:56;;;;;;;5.38;4.25;;;10.10;99.90;;;;;;5111087;28;20495;-61
2022/05/04 05:30:23;;;;;;;6.45;3.67;;;10.20;99.90;;;;;;5098988;28;20048;-61
2022/05/04 05:32:50;;;;;;;8.18;4.10;;;10.30;99.90;;;;;;5091308;28;20097;-61
2022/05/04 05:35:17;;;;;;;8.00;4.03;;;10.40;99.90;;;;;;5091809;28;20377;-62
2022/05/04 05:37:44;;;;;;;;;;;10.50;99.90;;;;;;5112028;28;20039;-62
2022/05/04 05:40:17;;;;;;;6.68;4.00;;;10.60;99.90;;;;;;5092136;28;20470;-62
2022/05/04 05:42:44;;;;;;;8.82;4.20;;;10.80;99.90;;;;;;5091225;28;20032;-62
2022/05/04 05:45:11;;;;;;;7.38;3.95;;;10.80;99.90;;;;;;5108960;28;20032;-62
2022/05/04 05:47:41;;;;;;;4.07;3.40;;;11.00;99.90;;;;;;5097773;28;20097;-62
2022/05/04 05:50:08;;;;;;;5.88;3.70;;;11.00;99.90;;;;;;5094674;28;20044;-62
2022/05/04 05:52:35;;;;;;;;;;;11.10;99.90;;;;;;5096770;28;20040;-62
2022/05/04 05:55:02;;;;;;;7.43;4.32;;;11.10;99.90;;;;;;5097014;28;20346;-62
2022/05/04 05:57:29;;;;;;;7.93;3.95;;;11.20;99.90;;;;;;5095090;28;20051;-61
2022/05/04 06:00:02;;;;;;;8.27;4.15;;;11.20;99.90;;;;;;5094557;28;20032;-61
2022/05/04 06:02:37;;;;;;;9.15;4.07;;;11.30;99.90;;;;;;5111330;28;20040;-62
2022/05/04 06:05:04;;;;;;;6.32;3.80;;;11.30;99.90;;;;;;5098146;28;20051;-62
2022/05/04 06:07:31;;;;;;;6.25;3.80;;;11.30;99.90;;;;;;5094694;28;20093;-62
2022/05/04 06:09:58;;;;;;;8.02;4.15;;;11.30;99.90;;;;;;5094404;28;20047;-61
2022/05/04 06:12:25;;;;;;;5.22;3.97;;;11.20;99.90;;;;;;5111167;28;20048;-61
2022/05/04 06:14:51;;;;;;;6.38;4.20;;;11.30;99.90;;;;;;5105661;28;20604;-61
2022/05/04 06:17:18;;;;;;;7.85;4.43;;;11.20;99.90;;;;;;5101837;28;20101;-61
2022/05/04 06:19:45;;;;;;;5.95;4.32;;;11.20;99.90;;;;;;5114605;28;20134;-62
2022/05/04 06:22:12;;;;;;;9.52;4.65;;;11.20;99.90;;;;;;5112689;28;20309;-61
2022/05/04 06:24:38;;;;;;;7.72;5.30;;;11.20;99.90;;;;;;5102330;28;20046;-61
2022/05/04 06:27:06;;;;;;;7.28;4.05;;;11.30;99.90;;;;;;5100132;28;20097;-61
2022/05/04 06:35:17;;;;;;;5.45;4.28;;;11.60;99.90;;;;;;5103689;28;20391;-61
2022/05/04 06:37:44;;;;;;;6.15;4.20;;;11.80;99.90;;;;;;5086302;28;20052;-61
2022/05/04 06:40:11;;;;;;;9.30;4.50;;;11.80;99.90;;;;;;5095662;28;20101;-61
2022/05/04 06:42:39;;;;;;;7.05;4.43;;;11.90;99.90;;;;;;5101266;28;20032;-61
2022/05/04 06:45:06;;;;;;;6.43;4.28;;;11.90;99.90;;;;;;5102992;28;20032;-61
2022/05/04 06:47:33;;;;;;;7.25;4.22;;;12.10;99.90;;;;;;5105267;28;20040;-61
2022/05/04 06:50:00;;;;;;;8.75;4.47;;;12.40;99.90;;;;;;5100556;28;20044;-61
2022/05/04 06:52:26;;;;;;;7.20;4.40;;;12.70;99.90;;;;;;5104918;28;20062;-62
2022/05/04 06:54:53;;;;;;;8.63;4.32;;;13.00;99.90;;;;;;5100845;28;20035;-61
2022/05/04 06:57:20;;;;;;;7.72;4.07;;;13.20;99.90;;;;;;5104859;28;20456;-61
2022/05/04 06:59:48;;;;;;;8.18;4.82;;;13.40;99.90;;;;;;5092817;28;20119;-62
2022/05/04 07:02:16;;;;;;;7.80;4.28;;;13.50;99.90;;;;;;5100073;28;20044;-62
2022/05/04 07:04:43;;;;;;;6.35;4.57;;;13.80;99.90;;;;;;5099096;28;20039;-62
2022/05/04 07:07:09;;;;;;;5.88;4.40;;;13.80;99.90;;;;;;5099291;28;20063;-62
2022/05/04 07:09:36;;;;;;;7.35;4.25;;;13.90;99.90;;;;;;5097358;28;20035;-61
2022/05/04 07:12:04;;;;;;;6.22;3.97;;;13.90;99.90;;;;;;5099419;28;20108;-62
2022/05/04 07:14:31;;;;;;;8.00;3.80;;;13.90;99.90;;;;;;5099245;28;20048;-62
2022/05/04 07:16:58;;;;;;;9.38;4.18;;;14.00;99.90;;;;;;5102278;28;20048;-62
2022/05/04 07:19:25;;;;;;;;;;;14.20;99.90;;;;;;5101648;28;20044;-62
2022/05/04 07:21:52;;;;;;;6.75;4.05;;;14.30;99.90;;;;;;5101506;28;19920;-62
2022/05/04 07:24:19;;;;;;;5.82;3.60;;;14.50;99.90;;;;;;5103894;28;20043;-62
2022/05/04 07:26:45;;;;;;;6.05;3.50;;;14.80;99.90;;;;;;5097392;28;20066;-62
2022/05/04 07:29:12;;;;;;;7.30;2.60;;;14.70;99.90;;;;;;5101750;28;20052;-62
2022/05/04 07:31:44;;;;;;;4.50;2.75;;;14.80;99.90;;;;;;5100383;28;20051;-62
2022/05/04 07:34:14;;;;;;;3.75;2.28;;;14.90;99.90;;;;;;5102491;28;20062;-62
2022/05/04 07:36:41;;;;;;;3.40;2.58;;;15.20;99.90;;;;;;5102288;28;20040;-62
2022/05/04 07:39:08;;;;;;;3.53;2.45;;;15.50;99.90;;;;;;5092577;28;20510;-62
2022/05/04 07:44:20;;;;;;;3.92;2.80;;;15.60;99.90;;;;;;5098555;28;20039;-62
2022/05/04 07:46:48;;;;;;;3.65;2.78;;;15.90;99.90;;;;;;5096326;28;20054;-62
2022/05/04 07:49:15;;;;;;;4.18;2.47;;;16.10;99.90;;;;;;5104142;28;20067;-62
2022/05/04 07:51:42;;;;;;;3.28;2.78;;;16.40;99.90;;;;;;5097193;28;20523;-62
2022/05/04 07:54:09;;;;;;;4.60;2.42;;;16.50;99.90;;;;;;5100978;28;20412;-62
2022/05/04 07:56:36;;;;;;;3.90;3.08;;;16.40;99.90;;;;;;5098843;28;20055;-62
2022/05/04 07:59:03;;;;;;;5.88;3.03;;;16.30;99.90;;;;;;5100242;28;20370;-62
2022/05/04 08:04:18;;;;;;;5.20;2.35;;;16.70;99.90;;;;;;5099228;28;20036;-61
2022/05/04 08:06:45;;;;;;;2.78;2.58;;;16.80;99.90;;;;;;5101561;28;20044;-62
2022/05/04 08:09:12;;;;;;;;;;;17.10;99.90;;;;;;5103261;28;20044;-61
2022/05/04 08:11:40;;;;;;;3.13;2.22;;;17.20;99.90;;;;;;5095913;28;20406;-62
2022/05/04 08:14:08;;;;;;;5.28;2.50;;;17.40;99.90;;;;;;5099941;28;20047;-62
2022/05/04 08:16:35;;;;;;;4.35;2.20;;;17.70;99.90;;;;;;5102186;28;20075;-61
2022/05/04 08:19:03;;;;;;;4.65;2.70;;;17.90;99.90;;;;;;5102504;28;20039;-61
2022/05/04 08:21:30;;;;;;;4.63;2.22;;;18.30;99.90;;;;;;5094949;28;20486;-61
2022/05/04 08:23:57;;;;;;;9.20;2.70;;;18.50;99.90;;;;;;5099806;28;20564;-60
2022/05/04 08:26:23;;;;;;;7.32;2.45;;;18.30;99.90;;;;;;5101944;28;20044;-61
2022/05/04 08:28:51;;;;;;;5.07;2.35;;;18.50;99.90;;;;;;5097205;28;20032;-61
2022/05/04 08:31:18;;;;;;;;;;;18.70;99.90;;;;;;5098582;28;20503;-61
2022/05/04 08:33:45;;;;;;;3.90;1.77;;;18.70;99.90;;;;;;5102053;28;19923;-61
2022/05/04 08:36:12;;;;;;;2.80;2.40;;;19.10;99.90;;;;;;5104202;28;20078;-60
2022/05/04 08:38:39;;;;;;;3.33;2.40;;;18.90;99.90;;;;;;5080238;28;20489;-60
2022/05/04 08:41:07;;;;;;;2.92;2.17;;;18.70;99.90;;;;;;5101408;28;20100;-61
2022/05/04 08:43:34;;;;;;;4.55;2.65;;;18.80;99.90;;;;;;5098143;28;20036;-61
2022/05/04 08:46:03;;;;;;;5.68;2.80;;;18.80;99.90;;;;;;5091337;28;20403;-61
2022/05/04 08:48:35;;;;;;;4.68;2.20;;;19.00;99.90;;;;;;5099188;28;20036;-62
2022/05/04 08:51:04;;;;;;;3.85;2.58;;;19.00;99.90;;;;;;5099542;28;20075;-61
2022/05/04 08:53:32;;;;;;;6.80;2.75;;;18.90;99.90;;;;;;5097644;28;20027;-62
2022/05/04 08:55:59;;;;;;;5.13;2.40;;;18.40;99.90;;;;;;5099729;28;20039;-62
2022/05/04 08:58:39;;;;;;;3.88;2.63;;;18.40;99.90;;;;;;5099864;28;20101;-61
2022/05/04 09:01:05;;;;;;;4.53;2.83;;;18.50;99.90;;;;;;5100634;28;20035;-62
2022/05/04 09:03:32;;;;;;;4.60;2.50;;;18.80;99.90;;;;;;5098796;28;20039;-61
2022/05/04 09:06:00;;;;;;;3.97;2.25;;;18.70;99.90;;;;;;5099616;28;20797;-61
2022/05/04 09:08:56;;;;;;;3.55;2.90;;;18.80;99.90;;;;;;5100835;28;20068;-61
2022/05/04 09:11:24;;;;;;;3.40;2.45;;;19.00;99.90;;;;;;5101282;28;20044;-61
2022/05/04 09:13:52;;;;;;;4.90;3.03;;;19.10;99.90;;;;;;5100003;28;20055;-62
2022/05/04 09:16:34;;;;;;;3.50;2.67;;;19.20;99.90;;;;;;5099402;28;20059;-61
2022/05/04 09:19:06;;;;;;;3.42;2.70;;;19.30;99.90;;;;;;5100492;28;20044;-62
2022/05/04 09:21:34;;;;;;;5.03;2.78;;;19.70;99.90;;;;;;5100131;28;20032;-62
2022/05/04 09:24:03;;;;;;;3.05;2.70;;;20.00;99.90;;;;;;5098834;28;20039;-62
2022/05/04 09:26:30;;;;;;;3.65;2.38;;;19.90;99.90;;;;;;5102102;28;20484;-62
2022/05/04 09:29:01;;;;;;;7.05;2.75;;;20.30;99.90;;;;;;5102814;28;20623;-62
2022/05/04 09:31:30;;;;;;;4.15;2.60;;;20.40;99.90;;;;;;5117716;22;20351;-62
2022/05/04 09:34:07;;;;;;;4.88;2.10;;;20.60;99.90;;;;;;5116420;28;20043;-60
2022/05/04 09:44:53;;;;;;;4.50;2.13;;;20.70;99.90;;;;;;5115966;28;20518;-62
2022/05/04 09:45:13;;;;;;;8.60;2.45;;;20.20;99.90;;;;;;5121508;28;20051;-61
2022/05/04 09:47:41;;;;;;;12.13;2.00;;;19.70;99.90;;;;;;5119683;28;20055;-61
2022/05/04 09:50:10;;;;;;;5.45;2.08;;;19.30;99.90;;;;;;5120552;28;20043;-61
2022/05/04 09:52:46;;;;;;;4.80;1.60;;;18.90;99.90;;;;;;5118460;28;20123;-61
2022/05/04 09:55:22;;;;;;;3.38;1.75;;;19.00;99.90;;;;;;5111662;28;20048;-61
2022/05/04 09:57:50;;;;;;;2.05;1.75;;;18.80;99.90;;;;;;5111519;28;20508;-61
2022/05/04 10:00:21;;;;;;;3.13;1.90;;;18.40;99.90;;;;;;5119853;28;20084;-61
2022/05/04 10:02:52;;;;;;;4.05;1.70;;;18.30;99.90;;;;;;5126072;28;20043;-61
2022/05/04 10:05:20;;;;;;;5.40;1.65;;;18.20;99.90;;;;;;5132020;28;20035;-61
2022/05/04 10:07:50;;;;;;;1.85;1.48;;;18.10;99.90;;;;;;5127237;28;20040;-61
2022/05/04 10:10:19;;;;;;;4.93;1.80;;;18.10;99.90;;;;;;5125373;28;20046;-61
2022/05/04 10:12:46;;;;;;;4.05;1.52;;;18.20;99.90;;;;;;5131645;27;20047;-62
2022/05/04 10:15:16;;;;;;;6.47;1.90;;;18.50;99.90;;;;;;5123998;28;20055;-62
2022/05/04 10:17:54;;;;;;;7.28;2.17;;;18.90;99.90;;;;;;5125998;28;20052;-61
2022/05/04 10:20:30;;;;;;;7.35;2.30;;;19.40;99.90;;;;;;5111037;28;20071;-61
2022/05/04 10:23:15;;;;;;;1.88;1.42;;;19.40;99.90;;;;;;5111085;28;20040;-62
2022/05/04 10:25:43;;;;;;;2.45;1.60;;;19.20;99.90;;;;;;5117320;28;20114;-61
2022/05/04 10:28:13;;;;;;;4.75;1.70;;;19.10;99.90;;;;;;5121961;28;20064;-61
2022/05/04 10:30:59;;;;;;;4.20;1.98;;;19.40;99.90;;;;;;5111025;28;20043;-61
2022/05/04 10:33:32;;;;;;;3.65;1.70;;;19.70;99.90;;;;;;5111463;28;20046;-62
2022/05/04 10:36:26;;;;;;;2.13;1.92;;;20.10;99.90;;;;;;5130300;27;20066;-62
2022/05/04 10:38:58;;;;;;;2.95;2.00;;;20.30;99.90;;;;;;5115032;28;20055;-61
2022/05/04 10:41:38;;;;;;;2.65;2.03;;;20.30;99.90;;;;;;5114920;27;20755;-62
2022/05/04 10:44:09;;;;;;;5.32;2.08;;;20.60;99.90;;;;;;5131818;27;20394;-62
2022/05/04 10:46:41;;;;;;;3.53;2.13;;;20.90;99.90;;;;;;5120894;27;20058;-61
2022/05/04 10:49:13;;;;;;;3.65;2.10;;;20.80;99.90;;;;;;5123489;27;20510;-62
2022/05/04 10:51:42;;;;;;;6.70;1.77;;;20.90;99.90;;;;;;5125963;27;20043;-61
2022/05/04 10:54:13;;;;;;;3.65;1.80;;;20.60;99.90;;;;;;5123477;27;20047;-62
2022/05/04 10:56:42;;;;;;;3.75;2.05;;;20.70;99.90;;;;;;5124221;27;20106;-62
2022/05/04 10:59:10;;;;;;;3.30;2.08;;;20.60;99.90;;;;;;5123417;27;20491;-62
2022/05/04 11:01:41;;;;;;;4.20;2.30;;;20.50;99.90;;;;;;5105616;27;20088;-62
2022/05/04 11:04:10;;;;;;;3.67;2.30;;;20.70;99.90;;;;;;5117111;27;20519;-62
2022/05/04 11:06:40;;;;;;;2.58;2.10;;;20.50;99.90;;;;;;5114186;28;20071;-62
2022/05/04 11:09:17;;;;;;;2.55;2.03;;;19.50;99.90;;;;;;5122491;27;20449;-61
2022/05/04 11:11:47;;;;;;;5.13;2.45;;;19.20;99.90;;;;;;5128541;27;20047;-62
2022/05/04 11:14:16;;;;;;;6.93;2.47;;;18.80;99.90;;;;;;5134823;27;20043;-62
2022/05/04 11:16:44;;;;;;;3.83;2.35;;;18.70;99.90;;;;;;5130370;27;20097;-62
2022/05/04 11:19:13;;;;;;;3.47;2.05;;;18.80;99.90;;;;;;5130846;27;20570;-62
2022/05/04 11:21:39;;;;;;;4.05;2.15;;;19.00;99.90;;;;;;5113787;27;20377;-62
2022/05/04 11:24:09;;;;;;;9.55;2.60;;;19.40;99.90;;;;;;5108804;27;20494;-63
2022/05/04 11:26:41;;;;;;;5.07;2.30;;;19.70;99.90;;;;;;5104573;27;20561;-63
2022/05/04 11:29:14;;;;;;;6.53;2.30;;;20.10;99.90;;;;;;5120335;27;20040;-63
2022/05/04 11:31:44;;;;;;;2.95;2.17;;;20.40;99.90;;;;;;5109876;27;20039;-63
2022/05/04 11:34:16;;;;;;;4.93;2.40;;;20.50;99.90;;;;;;5132405;27;20031;-64
2022/05/04 11:36:45;;;;;;;3.88;2.30;;;20.40;99.90;;;;;;5120458;27;20039;-63
2022/05/04 11:39:27;;;;;;;2.80;2.40;;;20.50;99.90;;;;;;5120137;27;20048;-63
2022/05/04 11:41:56;;;;;;;2.85;2.05;;;20.80;99.90;;;;;;5117592;27;20039;-63
2022/05/04 11:44:24;;;;;;;2.75;2.25;;;21.10;99.90;;;;;;5117328;27;20035;-60
2022/05/04 11:46:54;;;;;;;3.42;2.10;;;21.30;99.90;;;;;;5124436;27;20112;-63
2022/05/04 11:49:23;;;;;;;3.78;2.28;;;21.30;99.90;;;;;;5133121;27;20088;-61
2022/05/04 11:51:51;;;;;;;15.05;2.55;;;21.20;99.90;;;;;;5131835;27;20034;-63
2022/05/04 11:54:18;;;;;;;3.00;2.60;;;21.20;99.90;;;;;;5104025;28;20108;-62
2022/05/04 11:56:45;;;;;;;4.93;2.45;;;21.20;99.90;;;;;;5094453;28;20461;-63
2022/05/04 11:59:12;;;;;;;2.78;2.35;;;21.10;99.90;;;;;;5111704;28;20101;-63
2022/05/04 12:01:40;;;;;;;2.55;2.30;;;21.00;99.90;;;;;;5126643;27;20031;-63
2022/05/04 12:04:09;;;;;;;4.40;2.30;;;21.00;99.90;;;;;;5115177;27;20131;-62
2022/05/04 12:06:37;;;;;;;2.85;2.03;;;20.90;99.90;;;;;;5112496;28;20035;-62
2022/05/04 12:09:03;;;;;;;;;;;20.80;99.90;;;;;;5120921;27;20088;-62
2022/05/04 12:11:32;;;;;;;2.60;2.20;;;20.50;99.90;;;;;;5124309;27;19923;-62
2022/05/04 12:13:59;;;;;;;5.63;2.33;;;20.40;99.90;;;;;;5132110;27;20043;-62
2022/05/04 12:16:28;;;;;;;4.28;2.20;;;20.30;99.90;;;;;;5133368;27;20039;-62
2022/05/04 12:18:55;;;;;;;3.88;1.98;;;20.30;99.90;;;;;;5120999;27;20086;-62
2022/05/04 12:21:22;;;;;;;4.22;2.08;;;20.50;99.90;;;;;;5131722;27;20043;-62
2022/05/04 12:23:54;;;;;;;2.03;1.70;;;20.60;99.90;;;;;;5132425;27;20039;-62
2022/05/04 12:26:21;;;;;;;3.50;1.88;;;20.60;99.90;;;;;;5131875;27;20448;-62
2022/05/04 12:34:25;;;;;;;3.20;1.70;;;20.80;99.90;;;;;;5111800;28;20048;-62
2022/05/04 12:36:59;;;;;;;4.15;1.77;;;20.80;99.90;;;;;;5119890;27;20111;-62
2022/05/04 12:39:27;;;;;;;4.55;1.80;;;20.90;99.90;;;;;;5123249;27;20049;-61
2022/05/04 12:41:56;;;;;;;;;;;21.00;98.70;;;;;;5130796;27;20035;-61
2022/05/04 12:44:22;;;;;;;4.15;2.22;;;21.10;99.90;;;;;;5124636;27;19938;-62
2022/05/04 12:46:57;;;;;;;3.47;1.48;;;21.10;99.90;;;;;;5129818;27;20384;-61
2022/05/04 12:49:24;;;;;;;2.83;1.58;;;20.80;99.50;;;;;;5101641;27;20047;-62
2022/05/04 12:51:51;;;;;;;;;;;20.90;98.70;;;;;;5126463;27;20039;-61
2022/05/04 12:54:18;;;;;;;4.63;1.83;;;20.90;96.70;;;;;;5120727;27;19943;-62
2022/05/04 12:56:46;;;;;;;;;;;20.90;97.90;;;;;;5116699;27;20100;-61
2022/05/04 12:59:17;;;;;;;1.38;1.27;;;20.90;98.10;;;;;;5122437;27;19920;-62
2022/05/04 13:01:44;;;;;;;2.55;1.48;;;20.90;96.40;;;;;;5124981;27;20046;-62
2022/05/04 13:04:13;;;;;;;3.53;1.70;;;20.90;98.20;;;;;;5129756;27;20031;-62
2022/05/04 13:06:41;;;;;;;3.17;1.50;;;21.00;96.90;;;;;;5124823;27;20074;-62
2022/05/04 13:09:07;;;;;;;;;;;21.00;95.50;;;;;;5131026;27;20084;-61
2022/05/04 13:11:35;;;;;;;2.08;1.52;;;21.10;96.50;;;;;;5125955;27;19927;-61
2022/05/04 13:14:02;;;;;;;1.67;1.40;;;21.40;96.10;;;;;;5117023;27;20040;-61
2022/05/04 13:16:33;;;;;;;3.10;1.38;;;21.40;94.00;;;;;;5126447;27;20495;-61
2022/05/04 13:19:01;;;;;;;1.52;1.38;;;21.30;94.70;;;;;;5128912;27;20030;-62
2022/05/04 13:21:30;;;;;;;4.20;1.50;;;21.30;93.40;;;;;;5124466;27;20122;-63
2022/05/04 13:24:02;;;;;;;2.38;1.20;;;21.30;94.00;;;;;;5128984;27;20038;-61
2022/05/04 13:26:29;;;;;;;2.42;1.65;;;21.30;92.80;;;;;;5111277;28;20047;-63
2022/05/04 13:28:56;;;;;;;;;;;21.20;94.50;;;;;;5129203;27;20046;-63
2022/05/04 13:31:24;;;;;;;4.90;1.45;;;21.20;93.20;;;;;;5126559;28;19923;-62
2022/05/04 13:33:52;;;;;;;3.83;1.40;;;21.30;94.50;;;;;;5122253;28;20047;-63
2022/05/04 13:36:18;;;;;;;2.08;1.63;;;21.40;94.80;;;;;;5125794;28;20044;-63
2022/05/04 13:38:45;;;;;;;4.45;1.17;;;21.30;94.50;;;;;;5126489;28;20062;-63
2022/05/04 13:41:13;;;;;;;2.20;1.70;;;21.10;94.80;;;;;;5115095;28;20040;-63